createdAt,value
2017-11-03T00:08:19.000Z,21.91
2017-11-03T00:18:19.000Z,21.86
2017-11-03T00:28:19.000Z,21.83
2017-11-03T00:38:19.000Z,21.79
2017-11-03T00:48:19.000Z,21.73
2017-11-03T00:58:19.000Z,21.68
2017-11-03T01:08:19.000Z,21.63
2017-11-03T01:18:19.000Z,21.6
2017-11-03T01:28:19.000Z,21.54
2017-11-03T01:38:20.000Z,21.52
2017-11-03T01:48:20.000Z,21.48
2017-11-03T01:58:20.000Z,21.42
2017-11-03T02:08:20.000Z,21.39
2017-11-03T02:18:20.000Z,21.34
2017-11-03T02:28:20.000Z,21.3
2017-11-03T02:38:20.000Z,21.25
2017-11-03T02:48:20.000Z,21.21
2017-11-03T02:58:20.000Z,21.17
2017-11-03T03:08:20.000Z,21.13
2017-11-03T03:18:20.000Z,21.09
2017-11-03T03:28:20.000Z,21.04
2017-11-03T03:38:20.000Z,21.02
2017-11-03T03:48:20.000Z,20.98
2017-11-03T03:58:20.000Z,20.94
2017-11-03T04:08:20.000Z,20.9
2017-11-03T04:18:20.000Z,20.86
2017-11-03T04:28:20.000Z,20.83
2017-11-03T04:38:24.000Z,20.77
2017-11-03T04:58:20.000Z,20.67
2017-11-03T05:08:20.000Z,20.61
2017-11-03T05:18:20.000Z,20.59
2017-11-03T05:28:20.000Z,20.56
2017-11-03T05:38:20.000Z,20.51
2017-11-03T05:48:20.000Z,20.49
2017-11-03T05:58:20.000Z,20.48
2017-11-03T06:08:20.000Z,20.44
2017-11-03T06:18:22.000Z,20.41
2017-11-03T06:28:20.000Z,20.38
2017-11-03T06:38:20.000Z,20.33
2017-11-03T06:48:20.000Z,20.32
2017-11-03T06:58:20.000Z,20.3
2017-11-03T07:08:20.000Z,20.28
2017-11-03T07:18:20.000Z,20.26
2017-11-03T07:28:20.000Z,20.24
2017-11-03T07:38:20.000Z,20.21
2017-11-03T07:48:21.000Z,20.19
2017-11-03T07:58:20.000Z,20.18
2017-11-03T08:08:20.000Z,20.16
2017-11-03T08:18:21.000Z,20.15
2017-11-03T08:38:20.000Z,20.15
2017-11-03T08:48:20.000Z,20.11
2017-11-03T08:58:20.000Z,20.12
2017-11-03T09:08:20.000Z,20.12
2017-11-03T09:18:20.000Z,20.11
2017-11-03T09:28:23.000Z,20.11
2017-11-03T09:38:20.000Z,20.15
2017-11-03T09:48:20.000Z,20.16
2017-11-03T09:58:20.000Z,20.15
2017-11-03T10:08:21.000Z,20.17
2017-11-03T10:18:21.000Z,20.22
2017-11-03T10:28:21.000Z,20.21
2017-11-03T10:38:23.000Z,20.23
2017-11-03T10:48:21.000Z,20.23
2017-11-03T10:58:21.000Z,20.25
2017-11-03T11:08:21.000Z,20.26
2017-11-03T11:18:21.000Z,20.25
2017-11-03T11:28:21.000Z,20.29
2017-11-03T11:38:21.000Z,20.28
2017-11-03T11:48:21.000Z,20.3
2017-11-03T11:58:21.000Z,20.34
2017-11-03T12:08:21.000Z,20.37
2017-11-03T12:18:21.000Z,20.4
2017-11-03T12:28:21.000Z,20.42
2017-11-03T12:38:21.000Z,20.42
2017-11-03T12:48:21.000Z,20.44
2017-11-03T12:58:21.000Z,20.47
2017-11-03T13:08:21.000Z,20.48
2017-11-03T13:18:21.000Z,20.44
2017-11-03T13:28:21.000Z,20.49
2017-11-03T13:48:21.000Z,20.48
2017-11-03T13:58:21.000Z,20.48
2017-11-03T14:08:21.000Z,20.49
2017-11-03T14:18:21.000Z,20.48
2017-11-03T14:28:21.000Z,20.44
2017-11-03T14:38:21.000Z,20.43
2017-11-03T14:48:21.000Z,20.41
2017-11-03T14:58:21.000Z,20.38
2017-11-03T15:08:21.000Z,20.38
2017-11-03T15:18:21.000Z,20.35
2017-11-03T15:28:21.000Z,20.34
2017-11-03T15:38:21.000Z,20.31
2017-11-03T15:48:21.000Z,20.28
2017-11-03T15:58:21.000Z,20.27
2017-11-03T16:08:21.000Z,20.26
2017-11-03T16:18:21.000Z,20.24
2017-11-03T16:28:21.000Z,20.24
2017-11-03T16:38:21.000Z,20.23
2017-11-03T16:48:21.000Z,20.2
2017-11-03T17:08:21.000Z,20.18
2017-11-03T17:18:21.000Z,20.17
2017-11-03T17:28:22.000Z,20.14
2017-11-03T17:38:21.000Z,20.15
2017-11-03T17:48:21.000Z,20.12
2017-11-03T17:58:21.000Z,20.11
2017-11-03T18:08:21.000Z,20.11
2017-11-03T18:18:21.000Z,20.08
2017-11-03T18:28:21.000Z,20.07
2017-11-03T18:38:24.000Z,20.03
2017-11-03T18:48:24.000Z,20.01
2017-11-03T18:58:22.000Z,20.04
2017-11-03T19:08:22.000Z,20.03
2017-11-03T19:18:22.000Z,20.01
2017-11-03T19:28:22.000Z,20
2017-11-03T19:38:22.000Z,19.98
2017-11-03T19:48:22.000Z,19.94
2017-11-03T19:58:22.000Z,19.94
2017-11-03T20:08:22.000Z,19.96
2017-11-03T20:18:22.000Z,19.97
2017-11-03T20:28:22.000Z,20.13
2017-11-03T20:38:22.000Z,20.12
2017-11-03T20:48:22.000Z,20.16
2017-11-03T20:58:22.000Z,20.21
2017-11-03T21:08:22.000Z,20.24
2017-11-03T21:18:22.000Z,20.26
2017-11-03T21:28:22.000Z,20.28
2017-11-03T21:38:22.000Z,20.29
2017-11-03T21:48:22.000Z,20.3
2017-11-03T21:58:22.000Z,20.26
2017-11-03T22:08:22.000Z,20.19
2017-11-03T22:18:22.000Z,20.1
2017-11-03T22:28:24.000Z,20.06
2017-11-03T22:38:23.000Z,20.03
2017-11-03T22:48:26.000Z,19.98
2017-11-03T22:58:22.000Z,19.93
2017-11-03T23:08:22.000Z,19.9
2017-11-03T23:18:22.000Z,19.86
2017-11-03T23:28:22.000Z,19.82
2017-11-03T23:38:22.000Z,19.78
2017-11-03T23:48:22.000Z,19.74
2017-11-03T23:58:22.000Z,19.72
